Time,TemperatureF,DewpointF,PressureIn,WindDirection,WindDirectionDegrees,WindSpeedMPH,WindSpeedGustMPH,Humidity,HourlyPrecipIn,Conditions,Clouds,dailyrainin,SolarRadiationWatts/m^2,SoftwareType,DateUTC
2013-07-10 00:11:00,78.0,39.0,-100.00,East,80,8.0,16.0,25,0.00,,,0.00,0.000000,,2013-07-10 06:11:00,
2013-07-10 00:21:00,78.0,39.0,-100.00,East,80,8.0,16.0,25,0.00,,,0.00,0.000000,,2013-07-10 06:21:00,
2013-07-10 00:32:00,78.0,39.0,-100.00,East,80,8.0,16.0,25,0.00,,,0.00,0.000000,,2013-07-10 06:32:00,
2013-07-10 00:42:00,75.0,39.0,-100.00,NNE,17,2.0,17.0,27,0.00,,,0.00,0.000000,,2013-07-10 06:42:00,
2013-07-10 01:01:00,75.0,39.0,-100.00,NNE,17,2.0,17.0,27,0.00,,,0.00,0.000000,,2013-07-10 07:01:00,
2013-07-10 01:11:00,75.0,39.0,-100.00,NNE,17,2.0,17.0,27,0.00,,,0.00,0.000000,,2013-07-10 07:11:00,
2013-07-10 01:22:00,75.0,39.0,-100.00,NNE,17,2.0,17.0,27,0.00,,,0.00,0.000000,,2013-07-10 07:22:00,
2013-07-10 01:32:00,75.0,39.0,-100.00,NNE,17,2.0,17.0,27,0.00,,,0.00,0.000000,,2013-07-10 07:32:00,
2013-07-10 01:42:00,74.0,40.0,-100.00,WNW,291,3.0,9.0,29,0.00,,,0.00,0.000000,,2013-07-10 07:42:00,
2013-07-10 02:01:00,74.0,40.0,-100.00,WNW,291,3.0,9.0,29,0.00,,,0.00,0.000000,,2013-07-10 08:01:00,
2013-07-10 02:11:00,74.0,40.0,-100.00,WNW,291,3.0,9.0,29,0.00,,,0.00,0.000000,,2013-07-10 08:11:00,
2013-07-10 02:22:00,74.0,40.0,-100.00,WNW,291,3.0,9.0,29,0.00,,,0.00,0.000000,,2013-07-10 08:22:00,
2013-07-10 02:32:00,74.0,40.0,-100.00,WNW,291,3.0,9.0,29,0.00,,,0.00,0.000000,,2013-07-10 08:32:00,
2013-07-10 02:42:00,72.0,40.0,-100.00,North,4,2.0,13.0,31,0.00,,,0.00,0.000000,,2013-07-10 08:42:00,
2013-07-10 03:02:00,72.0,40.0,-100.00,North,4,2.0,13.0,31,0.00,,,0.00,0.000000,,2013-07-10 09:02:00,
2013-07-10 03:12:00,72.0,40.0,-100.00,North,4,2.0,13.0,31,0.00,,,0.00,0.000000,,2013-07-10 09:12:00,
2013-07-10 03:21:00,72.0,40.0,-100.00,North,4,2.0,13.0,31,0.00,,,0.00,0.000000,,2013-07-10 09:21:00,
2013-07-10 03:32:00,72.0,40.0,-100.00,North,4,2.0,13.0,31,0.00,,,0.00,0.000000,,2013-07-10 09:32:00,
2013-07-10 03:42:00,-999.0,-99.9,-100.00,NNW,343,3.0,7.0,-999,-99.99,,,-99.99,0.000000,,2013-07-10 09:42:00,
2013-07-10 04:01:00,71.0,40.0,-100.00,NNW,343,3.0,7.0,33,0.00,,,0.00,0.000000,,2013-07-10 10:01:00,
2013-07-10 04:13:00,71.0,40.0,-100.00,NNW,343,3.0,7.0,33,0.00,,,0.00,0.000000,,2013-07-10 10:13:00,
2013-07-10 04:23:00,71.0,40.0,-100.00,NNW,343,3.0,7.0,33,0.00,,,0.00,0.000000,,2013-07-10 10:23:00,
2013-07-10 04:32:00,71.0,40.0,-100.00,NNW,343,3.0,7.0,33,0.00,,,0.00,0.000000,,2013-07-10 10:32:00,
2013-07-10 04:42:00,69.0,39.0,-100.00,WNW,295,1.0,6.0,34,0.00,,,0.00,0.000000,,2013-07-10 10:42:00,
2013-07-10 05:02:00,69.0,39.0,-100.00,WNW,295,1.0,6.0,34,0.00,,,0.00,0.000000,,2013-07-10 11:02:00,
2013-07-10 05:11:00,69.0,39.0,-100.00,WNW,295,1.0,6.0,34,0.00,,,0.00,0.000000,,2013-07-10 11:11:00,
2013-07-10 05:22:00,69.0,39.0,-100.00,WNW,295,1.0,6.0,34,0.00,,,0.00,0.000000,,2013-07-10 11:22:00,
2013-07-10 05:33:00,69.0,39.0,-100.00,WNW,295,1.0,6.0,34,0.00,,,0.00,0.000000,,2013-07-10 11:33:00,
2013-07-10 07:42:00,69.0,41.0,-100.00,SSW,205,1.0,9.0,36,-99.99,,,0.00,78.000000,,2013-07-10 13:42:00,
2013-07-10 08:11:00,69.0,41.0,-100.00,SSW,205,1.0,9.0,36,-99.99,,,0.00,78.000000,,2013-07-10 14:11:00,
2013-07-10 08:22:00,69.0,41.0,-100.00,SSW,205,1.0,9.0,36,-99.99,,,0.00,78.000000,,2013-07-10 14:22:00,
2013-07-10 08:33:00,69.0,41.0,-100.00,SSW,205,1.0,9.0,36,-99.99,,,0.00,78.000000,,2013-07-10 14:33:00,
2013-07-10 08:42:00,76.0,41.0,-100.00,WNW,294,1.0,8.0,29,0.00,,,0.00,244.000000,,2013-07-10 14:42:00,
2013-07-10 09:11:00,76.0,41.0,-100.00,WNW,294,1.0,8.0,29,0.00,,,0.00,244.000000,,2013-07-10 15:11:00,
2013-07-10 09:22:00,76.0,41.0,-100.00,WNW,294,1.0,8.0,29,0.00,,,0.00,244.000000,,2013-07-10 15:22:00,
2013-07-10 09:34:00,76.0,41.0,-100.00,WNW,294,1.0,8.0,29,0.00,,,0.00,244.000000,,2013-07-10 15:34:00,
2013-07-10 09:42:00,80.0,42.0,-100.00,North,4,3.0,14.0,26,0.00,,,-99.99,412.000000,,2013-07-10 15:42:00,
2013-07-10 10:01:00,80.0,42.0,-100.00,North,4,3.0,14.0,26,0.00,,,-99.99,412.000000,,2013-07-10 16:01:00,
2013-07-10 10:11:00,80.0,42.0,-100.00,North,4,3.0,14.0,26,0.00,,,-99.99,412.000000,,2013-07-10 16:11:00,
2013-07-10 10:22:00,80.0,42.0,-100.00,North,4,3.0,14.0,26,0.00,,,-99.99,412.000000,,2013-07-10 16:22:00,
2013-07-10 10:33:00,80.0,42.0,-100.00,North,4,3.0,14.0,26,0.00,,,-99.99,412.000000,,2013-07-10 16:33:00,
2013-07-10 10:42:00,85.0,43.0,-100.00,East,84,5.0,12.0,23,0.00,,,0.00,584.000000,,2013-07-10 16:42:00,
2013-07-10 11:11:00,85.0,43.0,-100.00,East,84,5.0,12.0,23,0.00,,,0.00,584.000000,,2013-07-10 17:11:00,
2013-07-10 11:23:00,85.0,43.0,-100.00,East,84,5.0,12.0,23,0.00,,,0.00,584.000000,,2013-07-10 17:23:00,
2013-07-10 11:32:00,85.0,43.0,-100.00,East,84,5.0,12.0,23,0.00,,,0.00,584.000000,,2013-07-10 17:32:00,
2013-07-10 11:42:00,88.0,41.0,-100.00,SSW,196,4.0,10.0,19,0.00,,,0.00,738.000000,,2013-07-10 17:42:00,
2013-07-10 12:02:00,88.0,41.0,-100.00,SSW,196,4.0,10.0,19,0.00,,,0.00,738.000000,,2013-07-10 18:02:00,
2013-07-10 12:11:00,88.0,41.0,-100.00,SSW,196,4.0,10.0,19,0.00,,,0.00,738.000000,,2013-07-10 18:11:00,
2013-07-10 12:21:00,88.0,41.0,-100.00,SSW,196,4.0,10.0,19,0.00,,,0.00,738.000000,,2013-07-10 18:21:00,
2013-07-10 12:32:00,88.0,41.0,-100.00,SSW,196,4.0,10.0,19,0.00,,,0.00,738.000000,,2013-07-10 18:32:00,
2013-07-10 12:42:00,90.0,39.0,-100.00,SSE,152,7.0,13.0,17,0.00,,,0.00,852.000000,,2013-07-10 18:42:00,
2013-07-10 13:11:00,90.0,39.0,-100.00,SSE,152,7.0,13.0,17,0.00,,,0.00,852.000000,,2013-07-10 19:11:00,
2013-07-10 13:21:00,90.0,39.0,-100.00,SSE,152,7.0,13.0,17,0.00,,,0.00,852.000000,,2013-07-10 19:21:00,
2013-07-10 13:32:00,90.0,39.0,-100.00,SSE,152,7.0,13.0,17,0.00,,,0.00,852.000000,,2013-07-10 19:32:00,
2013-07-10 13:42:00,92.0,38.0,-100.00,SSW,198,12.0,19.0,15,0.00,,,0.00,917.000000,,2013-07-10 19:42:00,
2013-07-10 14:11:00,92.0,38.0,-100.00,SSW,198,12.0,19.0,15,0.00,,,0.00,917.000000,,2013-07-10 20:11:00,
2013-07-10 14:22:00,92.0,38.0,-100.00,SSW,198,12.0,19.0,15,0.00,,,0.00,917.000000,,2013-07-10 20:22:00,
2013-07-10 14:32:00,92.0,38.0,-100.00,SSW,198,12.0,19.0,15,0.00,,,0.00,917.000000,,2013-07-10 20:32:00,
2013-07-10 15:11:00,94.0,34.0,-100.00,South,189,12.0,20.0,12,0.00,,,0.00,935.000000,,2013-07-10 21:11:00,
2013-07-10 15:21:00,94.0,34.0,-100.00,South,189,12.0,20.0,12,0.00,,,0.00,935.000000,,2013-07-10 21:21:00,
2013-07-10 15:42:00,94.0,38.0,-100.00,South,188,12.0,21.0,14,0.00,,,0.00,904.000000,,2013-07-10 21:42:00,
2013-07-10 16:01:00,94.0,38.0,-100.00,South,188,12.0,21.0,14,0.00,,,0.00,904.000000,,2013-07-10 22:01:00,
2013-07-10 16:11:00,94.0,38.0,-100.00,South,188,12.0,21.0,14,0.00,,,0.00,904.000000,,2013-07-10 22:11:00,
2013-07-10 16:21:00,94.0,38.0,-100.00,South,188,12.0,21.0,14,0.00,,,0.00,904.000000,,2013-07-10 22:21:00,
2013-07-10 16:33:00,94.0,38.0,-100.00,South,188,12.0,21.0,14,0.00,,,0.00,904.000000,,2013-07-10 22:33:00,
2013-07-10 17:11:00,94.0,31.0,-100.00,South,191,12.0,20.0,11,0.00,,,0.00,824.000000,,2013-07-10 23:11:00,
2013-07-10 17:21:00,94.0,31.0,-100.00,South,191,12.0,20.0,11,0.00,,,0.00,824.000000,,2013-07-10 23:21:00,
2013-07-10 18:11:00,94.0,31.0,-100.00,South,191,10.0,20.0,11,0.00,,,0.00,700.000000,,2013-07-11 00:11:00,
2013-07-10 18:22:00,94.0,31.0,-100.00,South,191,10.0,20.0,11,0.00,,,0.00,700.000000,,2013-07-11 00:22:00,
2013-07-10 18:42:00,94.0,36.0,-100.00,South,175,11.0,18.0,13,0.00,,,0.00,545.000000,,2013-07-11 00:42:00,
2013-07-10 19:01:00,94.0,36.0,-100.00,South,175,11.0,18.0,13,0.00,,,0.00,545.000000,,2013-07-11 01:01:00,
2013-07-10 19:11:00,94.0,36.0,-100.00,South,175,11.0,18.0,13,0.00,,,0.00,545.000000,,2013-07-11 01:11:00,
2013-07-10 19:22:00,94.0,36.0,-100.00,South,175,11.0,18.0,13,0.00,,,0.00,545.000000,,2013-07-11 01:22:00,
2013-07-10 19:32:00,94.0,36.0,-100.00,South,175,11.0,18.0,13,0.00,,,0.00,545.000000,,2013-07-11 01:32:00,
2013-07-10 19:42:00,92.0,36.0,-100.00,South,179,11.0,16.0,14,0.00,,,0.00,361.000000,,2013-07-11 01:42:00,
2013-07-10 20:11:00,92.0,36.0,-100.00,South,179,11.0,16.0,14,0.00,,,0.00,361.000000,,2013-07-11 02:11:00,
2013-07-10 20:22:00,92.0,36.0,-100.00,South,179,11.0,16.0,14,0.00,,,0.00,361.000000,,2013-07-11 02:22:00,
2013-07-10 20:32:00,92.0,36.0,-100.00,South,179,11.0,16.0,14,0.00,,,0.00,361.000000,,2013-07-11 02:32:00,
2013-07-10 20:42:00,90.0,38.0,-100.00,South,183,7.0,13.0,16,0.00,,,0.00,141.000000,,2013-07-11 02:42:00,
2013-07-10 21:01:00,90.0,38.0,-100.00,South,183,7.0,13.0,16,0.00,,,0.00,141.000000,,2013-07-11 03:01:00,
2013-07-10 21:11:00,90.0,38.0,-100.00,South,183,7.0,13.0,16,0.00,,,0.00,141.000000,,2013-07-11 03:11:00,
2013-07-10 21:21:00,90.0,38.0,-100.00,South,183,7.0,13.0,16,0.00,,,0.00,141.000000,,2013-07-11 03:21:00,
2013-07-10 21:33:00,90.0,38.0,-100.00,South,183,7.0,13.0,16,0.00,,,0.00,141.000000,,2013-07-11 03:33:00,
2013-07-10 21:42:00,86.0,39.0,-100.00,WSW,252,2.0,12.0,19,0.00,,,0.00,32.000000,,2013-07-11 03:42:00,
2013-07-10 22:12:00,86.0,39.0,-100.00,WSW,252,2.0,12.0,19,0.00,,,0.00,32.000000,,2013-07-11 04:12:00,
2013-07-10 22:22:00,86.0,39.0,-100.00,WSW,252,2.0,12.0,19,0.00,,,0.00,32.000000,,2013-07-11 04:22:00,
2013-07-10 22:32:00,86.0,39.0,-100.00,WSW,252,2.0,12.0,19,0.00,,,0.00,32.000000,,2013-07-11 04:32:00,
2013-07-10 22:42:00,80.0,42.0,-100.00,SSW,204,1.0,10.0,26,-99.99,,,0.00,1.000000,,2013-07-11 04:42:00,
2013-07-10 23:12:00,80.0,42.0,-100.00,SSW,204,1.0,10.0,26,-99.99,,,0.00,1.000000,,2013-07-11 05:12:00,
2013-07-10 23:22:00,80.0,42.0,-100.00,SSW,204,1.0,10.0,26,-99.99,,,0.00,1.000000,,2013-07-11 05:22:00,
2013-07-10 23:32:00,80.0,42.0,-100.00,SSW,204,1.0,10.0,26,-99.99,,,0.00,1.000000,,2013-07-11 05:32:00,
2013-07-10 23:42:00,79.0,46.0,-100.00,NE,47,4.0,6.0,31,0.00,,,0.00,0.000000,,2013-07-11 05:42:00,